sensor_id;sensor_type;location;lat;lon;timestamp;temperature;humidity
14585;DHT22;7379;51.506;11.876;2023-03-19T00:01:34;13.00;67.20
14585;DHT22;7379;51.506;11.876;2023-03-19T00:04:02;13.00;67.10
14585;DHT22;7379;51.506;11.876;2023-03-19T00:06:29;13.00;67.10
14585;DHT22;7379;51.506;11.876;2023-03-19T00:08:56;12.90;67.10
14585;DHT22;7379;51.506;11.876;2023-03-19T00:11:23;13.00;67.30
14585;DHT22;7379;51.506;11.876;2023-03-19T00:13:50;13.00;67.30
14585;DHT22;7379;51.506;11.876;2023-03-19T00:16:17;13.00;67.40
14585;DHT22;7379;51.506;11.876;2023-03-19T00:18:43;12.90;67.40
14585;DHT22;7379;51.506;11.876;2023-03-19T00:21:12;12.90;67.40
14585;DHT22;7379;51.506;11.876;2023-03-19T00:23:38;12.90;67.40
14585;DHT22;7379;51.506;11.876;2023-03-19T00:26:05;12.90;67.50
14585;DHT22;7379;51.506;11.876;2023-03-19T00:28:32;12.90;67.60
14585;DHT22;7379;51.506;11.876;2023-03-19T00:31:07;12.90;67.60
14585;DHT22;7379;51.506;11.876;2023-03-19T00:33:34;12.90;67.60
14585;DHT22;7379;51.506;11.876;2023-03-19T00:36:01;12.90;67.70
14585;DHT22;7379;51.506;11.876;2023-03-19T00:38:29;12.90;67.60
14585;DHT22;7379;51.506;11.876;2023-03-19T00:40:56;12.90;67.70
14585;DHT22;7379;51.506;11.876;2023-03-19T00:43:23;12.80;67.60
14585;DHT22;7379;51.506;11.876;2023-03-19T00:45:50;12.80;67.70
14585;DHT22;7379;51.506;11.876;2023-03-19T00:48:17;12.80;67.70
14585;DHT22;7379;51.506;11.876;2023-03-19T00:50:44;12.80;67.70
14585;DHT22;7379;51.506;11.876;2023-03-19T00:53:11;12.80;67.60
14585;DHT22;7379;51.506;11.876;2023-03-19T00:55:39;12.80;67.60
14585;DHT22;7379;51.506;11.876;2023-03-19T00:58:06;12.80;67.60
14585;DHT22;7379;51.506;11.876;2023-03-19T01:00:33;12.80;67.60
14585;DHT22;7379;51.506;11.876;2023-03-19T01:03:01;12.80;67.60
14585;DHT22;7379;51.506;11.876;2023-03-19T01:05:28;12.70;67.50
14585;DHT22;7379;51.506;11.876;2023-03-19T01:07:55;12.80;67.50
14585;DHT22;7379;51.506;11.876;2023-03-19T01:10:23;12.80;67.60
14585;DHT22;7379;51.506;11.876;2023-03-19T01:12:51;12.80;67.60
14585;DHT22;7379;51.506;11.876;2023-03-19T01:15:18;12.70;67.50
14585;DHT22;7379;51.506;11.876;2023-03-19T01:17:45;12.70;67.60
14585;DHT22;7379;51.506;11.876;2023-03-19T01:20:12;12.70;67.60
14585;DHT22;7379;51.506;11.876;2023-03-19T01:22:43;12.70;67.60
14585;DHT22;7379;51.506;11.876;2023-03-19T01:25:12;12.70;67.70
14585;DHT22;7379;51.506;11.876;2023-03-19T01:27:39;12.70;67.70
14585;DHT22;7379;51.506;11.876;2023-03-19T01:30:09;12.70;67.70
14585;DHT22;7379;51.506;11.876;2023-03-19T01:32:36;12.70;67.70
14585;DHT22;7379;51.506;11.876;2023-03-19T01:35:03;12.70;67.60
14585;DHT22;7379;51.506;11.876;2023-03-19T01:37:29;12.70;67.70
14585;DHT22;7379;51.506;11.876;2023-03-19T01:39:56;12.70;67.70
14585;DHT22;7379;51.506;11.876;2023-03-19T01:42:23;12.70;67.70
14585;DHT22;7379;51.506;11.876;2023-03-19T01:44:50;12.70;67.80
14585;DHT22;7379;51.506;11.876;2023-03-19T01:47:24;12.70;67.80
14585;DHT22;7379;51.506;11.876;2023-03-19T01:49:55;12.60;67.50
14585;DHT22;7379;51.506;11.876;2023-03-19T01:52:24;12.60;67.70
14585;DHT22;7379;51.506;11.876;2023-03-19T01:54:52;12.60;67.60
14585;DHT22;7379;51.506;11.876;2023-03-19T01:57:21;12.60;67.80
14585;DHT22;7379;51.506;11.876;2023-03-19T01:59:50;12.60;67.90
14585;DHT22;7379;51.506;11.876;2023-03-19T02:02:23;12.60;67.90
14585;DHT22;7379;51.506;11.876;2023-03-19T02:04:55;12.60;67.80
14585;DHT22;7379;51.506;11.876;2023-03-19T02:07:22;12.60;67.80
14585;DHT22;7379;51.506;11.876;2023-03-19T02:09:50;12.60;67.80
14585;DHT22;7379;51.506;11.876;2023-03-19T02:12:17;12.60;67.80
14585;DHT22;7379;51.506;11.876;2023-03-19T02:14:43;12.50;67.70
14585;DHT22;7379;51.506;11.876;2023-03-19T02:17:10;12.50;67.80
14585;DHT22;7379;51.506;11.876;2023-03-19T02:19:44;12.50;67.80
14585;DHT22;7379;51.506;11.876;2023-03-19T02:22:13;12.50;67.70
14585;DHT22;7379;51.506;11.876;2023-03-19T02:24:49;12.50;67.70
14585;DHT22;7379;51.506;11.876;2023-03-19T02:27:18;12.50;68.40
14585;DHT22;7379;51.506;11.876;2023-03-19T02:29:45;12.50;67.60
14585;DHT22;7379;51.506;11.876;2023-03-19T02:32:12;12.50;67.60
14585;DHT22;7379;51.506;11.876;2023-03-19T02:34:40;12.50;67.60
14585;DHT22;7379;51.506;11.876;2023-03-19T02:37:11;12.50;68.20
14585;DHT22;7379;51.506;11.876;2023-03-19T02:39:46;12.50;68.00
14585;DHT22;7379;51.506;11.876;2023-03-19T02:42:17;12.50;68.30
14585;DHT22;7379;51.506;11.876;2023-03-19T02:44:45;12.40;68.40
14585;DHT22;7379;51.506;11.876;2023-03-19T02:47:12;12.40;68.60
14585;DHT22;7379;51.506;11.876;2023-03-19T02:49:39;12.40;68.50
14585;DHT22;7379;51.506;11.876;2023-03-19T02:52:06;12.40;68.60
14585;DHT22;7379;51.506;11.876;2023-03-19T02:54:33;12.40;68.60
14585;DHT22;7379;51.506;11.876;2023-03-19T02:57:00;12.40;68.70
14585;DHT22;7379;51.506;11.876;2023-03-19T02:59:28;12.40;68.60
14585;DHT22;7379;51.506;11.876;2023-03-19T03:01:55;12.40;68.60
14585;DHT22;7379;51.506;11.876;2023-03-19T03:04:22;12.30;68.50
14585;DHT22;7379;51.506;11.876;2023-03-19T03:06:49;12.40;68.70
14585;DHT22;7379;51.506;11.876;2023-03-19T03:09:16;12.30;68.50
14585;DHT22;7379;51.506;11.876;2023-03-19T03:11:43;12.40;68.50
14585;DHT22;7379;51.506;11.876;2023-03-19T03:14:10;12.30;68.50
14585;DHT22;7379;51.506;11.876;2023-03-19T03:16:39;12.30;68.60
14585;DHT22;7379;51.506;11.876;2023-03-19T03:19:06;12.30;68.70
14585;DHT22;7379;51.506;11.876;2023-03-19T03:21:32;12.30;68.70
14585;DHT22;7379;51.506;11.876;2023-03-19T03:23:59;12.30;68.80
14585;DHT22;7379;51.506;11.876;2023-03-19T03:26:26;12.30;68.80
14585;DHT22;7379;51.506;11.876;2023-03-19T03:28:53;12.30;68.90
14585;DHT22;7379;51.506;11.876;2023-03-19T03:31:20;12.30;68.80
14585;DHT22;7379;51.506;11.876;2023-03-19T03:33:49;12.30;68.90
14585;DHT22;7379;51.506;11.876;2023-03-19T03:36:16;12.20;68.90
14585;DHT22;7379;51.506;11.876;2023-03-19T03:38:43;12.20;69.60
14585;DHT22;7379;51.506;11.876;2023-03-19T03:41:10;12.20;68.90
14585;DHT22;7379;51.506;11.876;2023-03-19T03:43:37;12.20;68.90
14585;DHT22;7379;51.506;11.876;2023-03-19T03:46:04;12.20;68.90
14585;DHT22;7379;51.506;11.876;2023-03-19T03:48:32;12.20;68.90
14585;DHT22;7379;51.506;11.876;2023-03-19T03:51:00;12.20;69.10
14585;DHT22;7379;51.506;11.876;2023-03-19T03:53:27;12.20;69.10
14585;DHT22;7379;51.506;11.876;2023-03-19T03:55:54;12.20;69.20
14585;DHT22;7379;51.506;11.876;2023-03-19T03:58:21;12.20;70.00
14585;DHT22;7379;51.506;11.876;2023-03-19T04:00:48;12.20;69.20
14585;DHT22;7379;51.506;11.876;2023-03-19T04:03:15;12.20;69.30
14585;DHT22;7379;51.506;11.876;2023-03-19T04:05:42;12.20;69.30
14585;DHT22;7379;51.506;11.876;2023-03-19T04:08:11;12.10;69.20
14585;DHT22;7379;51.506;11.876;2023-03-19T04:10:39;12.10;69.30
14585;DHT22;7379;51.506;11.876;2023-03-19T04:13:07;12.10;70.00
14585;DHT22;7379;51.506;11.876;2023-03-19T04:15:33;12.10;69.30
14585;DHT22;7379;51.506;11.876;2023-03-19T04:18:00;12.10;69.30
14585;DHT22;7379;51.506;11.876;2023-03-19T04:20:27;12.10;69.40
14585;DHT22;7379;51.506;11.876;2023-03-19T04:22:54;12.10;69.40
14585;DHT22;7379;51.506;11.876;2023-03-19T04:25:22;12.10;69.40
14585;DHT22;7379;51.506;11.876;2023-03-19T04:27:49;12.10;69.40
14585;DHT22;7379;51.506;11.876;2023-03-19T04:30:17;12.00;69.40
14585;DHT22;7379;51.506;11.876;2023-03-19T04:32:44;12.00;69.40
14585;DHT22;7379;51.506;11.876;2023-03-19T04:35:11;12.00;69.40
14585;DHT22;7379;51.506;11.876;2023-03-19T04:37:38;12.00;69.40
14585;DHT22;7379;51.506;11.876;2023-03-19T04:40:06;12.00;70.20
14585;DHT22;7379;51.506;11.876;2023-03-19T04:42:35;12.00;69.50
14585;DHT22;7379;51.506;11.876;2023-03-19T04:45:02;11.90;69.40
14585;DHT22;7379;51.506;11.876;2023-03-19T04:47:29;12.00;69.50
14585;DHT22;7379;51.506;11.876;2023-03-19T04:49:56;11.90;69.40
14585;DHT22;7379;51.506;11.876;2023-03-19T04:52:23;11.90;69.50
14585;DHT22;7379;51.506;11.876;2023-03-19T04:54:49;11.90;69.40
14585;DHT22;7379;51.506;11.876;2023-03-19T04:57:16;11.90;69.50
14585;DHT22;7379;51.506;11.876;2023-03-19T04:59:44;11.90;69.50
14585;DHT22;7379;51.506;11.876;2023-03-19T05:02:12;11.90;69.50
14585;DHT22;7379;51.506;11.876;2023-03-19T05:04:38;11.90;69.60
14585;DHT22;7379;51.506;11.876;2023-03-19T05:07:05;11.90;69.60
14585;DHT22;7379;51.506;11.876;2023-03-19T05:09:32;11.90;69.60
14585;DHT22;7379;51.506;11.876;2023-03-19T05:11:59;11.90;69.60
14585;DHT22;7379;51.506;11.876;2023-03-19T05:14:26;11.90;69.60
14585;DHT22;7379;51.506;11.876;2023-03-19T05:16:54;11.90;69.60
14585;DHT22;7379;51.506;11.876;2023-03-19T05:19:21;11.80;69.60
14585;DHT22;7379;51.506;11.876;2023-03-19T05:21:48;11.80;69.60
14585;DHT22;7379;51.506;11.876;2023-03-19T05:24:15;11.80;69.60
14585;DHT22;7379;51.506;11.876;2023-03-19T05:26:42;11.80;69.60
14585;DHT22;7379;51.506;11.876;2023-03-19T05:29:09;11.80;69.60
14585;DHT22;7379;51.506;11.876;2023-03-19T05:31:36;11.80;69.60
14585;DHT22;7379;51.506;11.876;2023-03-19T05:34:05;11.80;69.60
14585;DHT22;7379;51.506;11.876;2023-03-19T05:36:32;11.80;69.70
14585;DHT22;7379;51.506;11.876;2023-03-19T05:38:59;11.80;69.70
14585;DHT22;7379;51.506;11.876;2023-03-19T05:41:26;11.80;69.70
14585;DHT22;7379;51.506;11.876;2023-03-19T05:43:53;11.80;69.70
14585;DHT22;7379;51.506;11.876;2023-03-19T05:46:20;11.80;69.80
14585;DHT22;7379;51.506;11.876;2023-03-19T05:48:46;11.70;69.70
14585;DHT22;7379;51.506;11.876;2023-03-19T05:51:14;11.70;69.70
14585;DHT22;7379;51.506;11.876;2023-03-19T05:53:41;11.70;69.80
14585;DHT22;7379;51.506;11.876;2023-03-19T05:56:08;11.70;70.50
14585;DHT22;7379;51.506;11.876;2023-03-19T05:58:35;11.70;69.80
14585;DHT22;7379;51.506;11.876;2023-03-19T06:01:02;11.70;69.90
14585;DHT22;7379;51.506;11.876;2023-03-19T06:03:29;11.70;69.90
14585;DHT22;7379;51.506;11.876;2023-03-19T06:05:56;11.70;69.90
14585;DHT22;7379;51.506;11.876;2023-03-19T06:08:25;11.70;69.90
14585;DHT22;7379;51.506;11.876;2023-03-19T06:10:52;11.70;70.00
14585;DHT22;7379;51.506;11.876;2023-03-19T06:13:19;11.70;70.00
14585;DHT22;7379;51.506;11.876;2023-03-19T06:15:47;11.70;70.00
14585;DHT22;7379;51.506;11.876;2023-03-19T06:18:14;11.70;70.00
14585;DHT22;7379;51.506;11.876;2023-03-19T06:20:41;11.60;70.70
14585;DHT22;7379;51.506;11.876;2023-03-19T06:23:08;11.60;70.00
14585;DHT22;7379;51.506;11.876;2023-03-19T06:25:36;11.60;70.00
14585;DHT22;7379;51.506;11.876;2023-03-19T06:28:03;11.60;70.00
14585;DHT22;7379;51.506;11.876;2023-03-19T06:30:31;11.60;70.00
14585;DHT22;7379;51.506;11.876;2023-03-19T06:32:58;11.60;70.00
14585;DHT22;7379;51.506;11.876;2023-03-19T06:35:24;11.60;70.10
14585;DHT22;7379;51.506;11.876;2023-03-19T06:37:51;11.60;70.20
14585;DHT22;7379;51.506;11.876;2023-03-19T06:40:19;11.60;70.20
14585;DHT22;7379;51.506;11.876;2023-03-19T06:42:47;11.60;70.20
14585;DHT22;7379;51.506;11.876;2023-03-19T06:45:15;11.60;70.30
14585;DHT22;7379;51.506;11.876;2023-03-19T06:47:43;11.60;70.20
14585;DHT22;7379;51.506;11.876;2023-03-19T06:50:12;11.60;70.30
14585;DHT22;7379;51.506;11.876;2023-03-19T06:52:39;11.60;71.10
14585;DHT22;7379;51.506;11.876;2023-03-19T06:55:07;11.60;70.30
14585;DHT22;7379;51.506;11.876;2023-03-19T06:57:34;11.60;70.40
14585;DHT22;7379;51.506;11.876;2023-03-19T07:00:03;11.60;70.50
14585;DHT22;7379;51.506;11.876;2023-03-19T07:02:30;11.60;70.50
14585;DHT22;7379;51.506;11.876;2023-03-19T07:04:57;11.60;70.50
14585;DHT22;7379;51.506;11.876;2023-03-19T07:07:24;11.60;70.50
14585;DHT22;7379;51.506;11.876;2023-03-19T07:09:51;11.60;70.50
14585;DHT22;7379;51.506;11.876;2023-03-19T07:12:17;11.60;70.50
14585;DHT22;7379;51.506;11.876;2023-03-19T07:14:44;11.50;70.50
14585;DHT22;7379;51.506;11.876;2023-03-19T07:17:12;11.60;70.50
14585;DHT22;7379;51.506;11.876;2023-03-19T07:19:39;11.60;70.30
14585;DHT22;7379;51.506;11.876;2023-03-19T07:22:06;11.60;70.10
14585;DHT22;7379;51.506;11.876;2023-03-19T07:24:33;11.60;70.00
14585;DHT22;7379;51.506;11.876;2023-03-19T07:26:59;11.60;70.00
14585;DHT22;7379;51.506;11.876;2023-03-19T07:29:26;11.60;70.10
14585;DHT22;7379;51.506;11.876;2023-03-19T07:31:53;11.60;70.20
14585;DHT22;7379;51.506;11.876;2023-03-19T07:34:21;11.60;70.40
14585;DHT22;7379;51.506;11.876;2023-03-19T07:36:48;11.60;70.70
14585;DHT22;7379;51.506;11.876;2023-03-19T07:39:15;11.70;70.60
14585;DHT22;7379;51.506;11.876;2023-03-19T07:41:42;11.70;70.60
14585;DHT22;7379;51.506;11.876;2023-03-19T07:44:12;11.80;70.60
14585;DHT22;7379;51.506;11.876;2023-03-19T07:46:39;11.80;70.60
14585;DHT22;7379;51.506;11.876;2023-03-19T07:49:05;11.80;70.50
14585;DHT22;7379;51.506;11.876;2023-03-19T07:51:34;11.90;70.40
14585;DHT22;7379;51.506;11.876;2023-03-19T07:54:01;11.90;70.30
14585;DHT22;7379;51.506;11.876;2023-03-19T07:56:28;11.90;70.40
14585;DHT22;7379;51.506;11.876;2023-03-19T07:58:55;12.00;70.50
14585;DHT22;7379;51.506;11.876;2023-03-19T08:01:21;12.00;70.40
14585;DHT22;7379;51.506;11.876;2023-03-19T08:03:48;12.00;70.40
14585;DHT22;7379;51.506;11.876;2023-03-19T08:06:15;12.10;70.60
14585;DHT22;7379;51.506;11.876;2023-03-19T08:08:43;12.10;70.60
14585;DHT22;7379;51.506;11.876;2023-03-19T08:11:10;12.10;70.70
14585;DHT22;7379;51.506;11.876;2023-03-19T08:13:37;12.10;70.70
14585;DHT22;7379;51.506;11.876;2023-03-19T08:16:04;12.10;70.80
14585;DHT22;7379;51.506;11.876;2023-03-19T08:18:31;12.10;71.00
14585;DHT22;7379;51.506;11.876;2023-03-19T08:20:58;12.10;71.00
14585;DHT22;7379;51.506;11.876;2023-03-19T08:23:25;12.10;71.00
14585;DHT22;7379;51.506;11.876;2023-03-19T08:25:53;12.10;71.40
14585;DHT22;7379;51.506;11.876;2023-03-19T08:28:21;12.10;71.70
14585;DHT22;7379;51.506;11.876;2023-03-19T08:30:48;12.10;72.30
14585;DHT22;7379;51.506;11.876;2023-03-19T08:33:15;12.10;72.80
14585;DHT22;7379;51.506;11.876;2023-03-19T08:35:42;12.10;73.00
14585;DHT22;7379;51.506;11.876;2023-03-19T08:38:09;12.20;73.30
14585;DHT22;7379;51.506;11.876;2023-03-19T08:40:35;12.10;73.00
14585;DHT22;7379;51.506;11.876;2023-03-19T08:43:04;12.20;73.10
14585;DHT22;7379;51.506;11.876;2023-03-19T08:45:31;12.20;73.00
14585;DHT22;7379;51.506;11.876;2023-03-19T08:47:58;12.20;73.00
14585;DHT22;7379;51.506;11.876;2023-03-19T08:50:25;12.20;72.40
14585;DHT22;7379;51.506;11.876;2023-03-19T08:52:51;12.20;72.80
14585;DHT22;7379;51.506;11.876;2023-03-19T08:55:18;12.30;72.90
14585;DHT22;7379;51.506;11.876;2023-03-19T08:57:45;12.30;72.90
14585;DHT22;7379;51.506;11.876;2023-03-19T09:00:15;12.30;73.00
14585;DHT22;7379;51.506;11.876;2023-03-19T09:02:42;12.30;72.90
14585;DHT22;7379;51.506;11.876;2023-03-19T09:05:09;12.30;72.20
14585;DHT22;7379;51.506;11.876;2023-03-19T09:07:35;12.30;73.00
14585;DHT22;7379;51.506;11.876;2023-03-19T09:10:03;12.30;72.80
14585;DHT22;7379;51.506;11.876;2023-03-19T09:12:29;12.40;72.70
14585;DHT22;7379;51.506;11.876;2023-03-19T09:14:57;12.40;72.70
14585;DHT22;7379;51.506;11.876;2023-03-19T09:17:25;12.40;72.20
14585;DHT22;7379;51.506;11.876;2023-03-19T09:19:52;12.40;72.30
14585;DHT22;7379;51.506;11.876;2023-03-19T09:22:19;12.40;71.90
14585;DHT22;7379;51.506;11.876;2023-03-19T09:24:46;12.40;71.90
14585;DHT22;7379;51.506;11.876;2023-03-19T09:27:12;12.50;72.60
14585;DHT22;7379;51.506;11.876;2023-03-19T09:29:40;12.50;71.80
14585;DHT22;7379;51.506;11.876;2023-03-19T09:32:07;12.50;72.00
14585;DHT22;7379;51.506;11.876;2023-03-19T09:34:35;12.50;72.30
14585;DHT22;7379;51.506;11.876;2023-03-19T09:37:02;12.60;72.00
14585;DHT22;7379;51.506;11.876;2023-03-19T09:39:28;12.60;71.90
14585;DHT22;7379;51.506;11.876;2023-03-19T09:42:02;12.60;72.00
14585;DHT22;7379;51.506;11.876;2023-03-19T09:44:34;12.60;72.10
14585;DHT22;7379;51.506;11.876;2023-03-19T09:47:11;12.70;72.40
14585;DHT22;7379;51.506;11.876;2023-03-19T09:49:44;12.70;72.00
14585;DHT22;7379;51.506;11.876;2023-03-19T09:52:19;12.70;71.80
14585;DHT22;7379;51.506;11.876;2023-03-19T09:54:52;12.70;71.60
14585;DHT22;7379;51.506;11.876;2023-03-19T09:57:21;12.70;71.40
14585;DHT22;7379;51.506;11.876;2023-03-19T09:59:48;12.80;71.50
14585;DHT22;7379;51.506;11.876;2023-03-19T10:02:28;12.70;71.30
14585;DHT22;7379;51.506;11.876;2023-03-19T10:05:06;12.80;71.60
14585;DHT22;7379;51.506;11.876;2023-03-19T10:10:44;12.80;71.60
14585;DHT22;7379;51.506;11.876;2023-03-19T10:13:22;12.80;71.60
14585;DHT22;7379;51.506;11.876;2023-03-19T10:15:53;12.80;71.70
14585;DHT22;7379;51.506;11.876;2023-03-19T10:18:25;12.90;71.90
14585;DHT22;7379;51.506;11.876;2023-03-19T10:20:58;12.90;71.50
14585;DHT22;7379;51.506;11.876;2023-03-19T10:23:41;12.90;71.80
14585;DHT22;7379;51.506;11.876;2023-03-19T10:26:12;13.00;71.80
14585;DHT22;7379;51.506;11.876;2023-03-19T10:28:41;13.00;71.70
14585;DHT22;7379;51.506;11.876;2023-03-19T10:31:21;13.00;71.70
14585;DHT22;7379;51.506;11.876;2023-03-19T10:33:56;13.00;71.80
14585;DHT22;7379;51.506;11.876;2023-03-19T10:36:29;13.10;71.80
14585;DHT22;7379;51.506;11.876;2023-03-19T10:38:56;13.10;72.00
14585;DHT22;7379;51.506;11.876;2023-03-19T10:41:31;13.20;72.20
14585;DHT22;7379;51.506;11.876;2023-03-19T10:44:01;13.20;71.70
14585;DHT22;7379;51.506;11.876;2023-03-19T10:46:36;13.30;71.80
14585;DHT22;7379;51.506;11.876;2023-03-19T10:49:03;13.30;71.50
14585;DHT22;7379;51.506;11.876;2023-03-19T10:51:31;13.30;71.10
14585;DHT22;7379;51.506;11.876;2023-03-19T10:53:59;13.40;71.40
14585;DHT22;7379;51.506;11.876;2023-03-19T10:56:28;13.40;70.70
14585;DHT22;7379;51.506;11.876;2023-03-19T10:58:58;13.50;70.40
14585;DHT22;7379;51.506;11.876;2023-03-19T11:01:31;13.40;70.30
14585;DHT22;7379;51.506;11.876;2023-03-19T11:03:59;13.50;70.30
14585;DHT22;7379;51.506;11.876;2023-03-19T11:06:32;13.50;70.20
14585;DHT22;7379;51.506;11.876;2023-03-19T11:09:02;13.50;69.70
14585;DHT22;7379;51.506;11.876;2023-03-19T11:11:42;13.50;69.80
14585;DHT22;7379;51.506;11.876;2023-03-19T11:14:14;13.60;69.80
14585;DHT22;7379;51.506;11.876;2023-03-19T11:16:54;13.60;69.80
14585;DHT22;7379;51.506;11.876;2023-03-19T11:19:23;13.60;70.70
14585;DHT22;7379;51.506;11.876;2023-03-19T11:22:08;13.60;70.20
14585;DHT22;7379;51.506;11.876;2023-03-19T11:24:36;13.70;70.10
14585;DHT22;7379;51.506;11.876;2023-03-19T11:27:04;13.70;69.80
14585;DHT22;7379;51.506;11.876;2023-03-19T11:29:32;13.80;69.60
14585;DHT22;7379;51.506;11.876;2023-03-19T11:32:08;13.80;69.70
14585;DHT22;7379;51.506;11.876;2023-03-19T11:34:42;13.90;69.50
14585;DHT22;7379;51.506;11.876;2023-03-19T11:37:17;13.90;69.60
14585;DHT22;7379;51.506;11.876;2023-03-19T11:39:51;13.90;68.70
14585;DHT22;7379;51.506;11.876;2023-03-19T11:45:30;14.00;67.40
14585;DHT22;7379;51.506;11.876;2023-03-19T11:48:05;14.00;67.40
14585;DHT22;7379;51.506;11.876;2023-03-19T11:50:42;14.00;67.30
14585;DHT22;7379;51.506;11.876;2023-03-19T11:53:21;14.00;67.10
14585;DHT22;7379;51.506;11.876;2023-03-19T11:55:58;14.00;67.10
14585;DHT22;7379;51.506;11.876;2023-03-19T11:58:49;14.00;67.20
14585;DHT22;7379;51.506;11.876;2023-03-19T12:01:47;14.00;67.30
14585;DHT22;7379;51.506;11.876;2023-03-19T12:04:30;14.00;67.50
14585;DHT22;7379;51.506;11.876;2023-03-19T12:07:07;14.00;67.60
14585;DHT22;7379;51.506;11.876;2023-03-19T12:09:39;14.00;67.60
14585;DHT22;7379;51.506;11.876;2023-03-19T12:12:17;14.00;67.80
14585;DHT22;7379;51.506;11.876;2023-03-19T12:14:57;13.90;68.00
14585;DHT22;7379;51.506;11.876;2023-03-19T12:17:40;13.90;68.10
14585;DHT22;7379;51.506;11.876;2023-03-19T12:20:23;13.90;67.90
14585;DHT22;7379;51.506;11.876;2023-03-19T12:22:59;13.90;68.10
14585;DHT22;7379;51.506;11.876;2023-03-19T12:28:31;13.90;68.50
14585;DHT22;7379;51.506;11.876;2023-03-19T12:31:27;13.90;68.80
14585;DHT22;7379;51.506;11.876;2023-03-19T12:34:04;13.80;69.00
14585;DHT22;7379;51.506;11.876;2023-03-19T12:36:37;13.80;69.30
14585;DHT22;7379;51.506;11.876;2023-03-19T12:39:11;13.90;69.50
14585;DHT22;7379;51.506;11.876;2023-03-19T12:41:43;13.90;69.20
14585;DHT22;7379;51.506;11.876;2023-03-19T12:44:17;13.90;69.20
14585;DHT22;7379;51.506;11.876;2023-03-19T12:46:49;13.90;68.90
14585;DHT22;7379;51.506;11.876;2023-03-19T12:49:22;13.90;68.90
14585;DHT22;7379;51.506;11.876;2023-03-19T12:51:54;13.90;69.00
14585;DHT22;7379;51.506;11.876;2023-03-19T12:54:25;13.90;69.00
14585;DHT22;7379;51.506;11.876;2023-03-19T12:56:59;13.90;69.10
14585;DHT22;7379;51.506;11.876;2023-03-19T12:59:32;13.80;69.30
14585;DHT22;7379;51.506;11.876;2023-03-19T13:02:10;13.80;69.60
14585;DHT22;7379;51.506;11.876;2023-03-19T13:04:40;13.80;70.00
14585;DHT22;7379;51.506;11.876;2023-03-19T13:07:17;13.80;70.10
14585;DHT22;7379;51.506;11.876;2023-03-19T13:09:49;13.80;70.30
14585;DHT22;7379;51.506;11.876;2023-03-19T13:12:22;13.70;70.30
14585;DHT22;7379;51.506;11.876;2023-03-19T13:14:56;13.80;70.40
14585;DHT22;7379;51.506;11.876;2023-03-19T13:17:31;13.70;70.50
14585;DHT22;7379;51.506;11.876;2023-03-19T13:20:08;13.70;70.70
14585;DHT22;7379;51.506;11.876;2023-03-19T13:22:52;13.70;70.80
14585;DHT22;7379;51.506;11.876;2023-03-19T13:25:23;13.70;71.10
14585;DHT22;7379;51.506;11.876;2023-03-19T13:27:53;13.70;71.30
14585;DHT22;7379;51.506;11.876;2023-03-19T13:30:22;13.70;71.80
14585;DHT22;7379;51.506;11.876;2023-03-19T13:32:50;13.70;72.10
14585;DHT22;7379;51.506;11.876;2023-03-19T13:35:27;13.60;72.10
14585;DHT22;7379;51.506;11.876;2023-03-19T13:37:59;13.70;72.30
14585;DHT22;7379;51.506;11.876;2023-03-19T13:40:42;13.60;72.50
14585;DHT22;7379;51.506;11.876;2023-03-19T13:43:38;13.60;72.60
14585;DHT22;7379;51.506;11.876;2023-03-19T13:46:34;13.70;72.90
14585;DHT22;7379;51.506;11.876;2023-03-19T13:51:53;13.60;73.00
14585;DHT22;7379;51.506;11.876;2023-03-19T13:54:31;13.60;73.10
14585;DHT22;7379;51.506;11.876;2023-03-19T13:57:19;13.70;73.20
14585;DHT22;7379;51.506;11.876;2023-03-19T13:59:49;13.60;73.20
14585;DHT22;7379;51.506;11.876;2023-03-19T14:02:47;13.60;73.70
14585;DHT22;7379;51.506;11.876;2023-03-19T14:05:17;13.60;73.80
14585;DHT22;7379;51.506;11.876;2023-03-19T14:07:49;13.60;74.10
14585;DHT22;7379;51.506;11.876;2023-03-19T14:10:21;13.60;74.50
14585;DHT22;7379;51.506;11.876;2023-03-19T14:12:50;13.70;74.50
14585;DHT22;7379;51.506;11.876;2023-03-19T14:15:21;13.60;74.60
14585;DHT22;7379;51.506;11.876;2023-03-19T14:17:59;13.60;74.60
14585;DHT22;7379;51.506;11.876;2023-03-19T14:20:28;13.60;74.70
14585;DHT22;7379;51.506;11.876;2023-03-19T14:23:10;13.60;74.40
14585;DHT22;7379;51.506;11.876;2023-03-19T14:26:12;13.60;74.50
14585;DHT22;7379;51.506;11.876;2023-03-19T14:28:47;13.60;74.60
14585;DHT22;7379;51.506;11.876;2023-03-19T14:31:23;13.60;74.60
14585;DHT22;7379;51.506;11.876;2023-03-19T14:34:00;13.60;74.30
14585;DHT22;7379;51.506;11.876;2023-03-19T14:36:27;13.60;74.30
14585;DHT22;7379;51.506;11.876;2023-03-19T14:38:58;13.50;74.40
14585;DHT22;7379;51.506;11.876;2023-03-19T14:41:27;13.50;74.40
14585;DHT22;7379;51.506;11.876;2023-03-19T14:44:24;13.50;74.80
14585;DHT22;7379;51.506;11.876;2023-03-19T14:47:22;13.50;74.60
14585;DHT22;7379;51.506;11.876;2023-03-19T14:49:56;13.50;74.50
14585;DHT22;7379;51.506;11.876;2023-03-19T14:52:30;13.50;74.50
14585;DHT22;7379;51.506;11.876;2023-03-19T14:54:59;13.50;74.40
14585;DHT22;7379;51.506;11.876;2023-03-19T14:57:28;13.50;74.20
14585;DHT22;7379;51.506;11.876;2023-03-19T14:59:57;13.50;74.10
14585;DHT22;7379;51.506;11.876;2023-03-19T15:02:34;13.50;74.20
14585;DHT22;7379;51.506;11.876;2023-03-19T15:05:03;13.60;74.20
14585;DHT22;7379;51.506;11.876;2023-03-19T15:07:33;13.50;73.70
14585;DHT22;7379;51.506;11.876;2023-03-19T15:10:05;13.50;73.70
14585;DHT22;7379;51.506;11.876;2023-03-19T15:12:55;13.50;74.20
14585;DHT22;7379;51.506;11.876;2023-03-19T15:15:31;13.50;74.20
14585;DHT22;7379;51.506;11.876;2023-03-19T15:18:03;13.50;73.90
14585;DHT22;7379;51.506;11.876;2023-03-19T15:20:34;13.50;73.80
14585;DHT22;7379;51.506;11.876;2023-03-19T15:23:05;13.50;73.70
14585;DHT22;7379;51.506;11.876;2023-03-19T15:25:33;13.50;73.50
14585;DHT22;7379;51.506;11.876;2023-03-19T15:28:06;13.50;73.60
14585;DHT22;7379;51.506;11.876;2023-03-19T15:30:33;13.50;73.50
14585;DHT22;7379;51.506;11.876;2023-03-19T15:33:02;13.50;73.60
14585;DHT22;7379;51.506;11.876;2023-03-19T15:35:31;13.50;74.80
14585;DHT22;7379;51.506;11.876;2023-03-19T15:38:02;13.50;74.60
14585;DHT22;7379;51.506;11.876;2023-03-19T15:40:32;13.60;73.90
14585;DHT22;7379;51.506;11.876;2023-03-19T15:43:01;13.50;73.60
14585;DHT22;7379;51.506;11.876;2023-03-19T15:45:30;13.50;74.30
14585;DHT22;7379;51.506;11.876;2023-03-19T15:48:03;13.60;74.20
14585;DHT22;7379;51.506;11.876;2023-03-19T15:50:34;13.60;74.50
14585;DHT22;7379;51.506;11.876;2023-03-19T15:53:05;13.60;74.20
14585;DHT22;7379;51.506;11.876;2023-03-19T15:55:35;13.60;73.90
14585;DHT22;7379;51.506;11.876;2023-03-19T15:58:05;13.60;73.70
14585;DHT22;7379;51.506;11.876;2023-03-19T16:00:35;13.60;73.60